Time,TemperatureF,DewpointF,PressureIn,WindDirection,WindDirectionDegrees,WindSpeedMPH,WindSpeedGustMPH,Humidity,HourlyPrecipIn,Conditions,Clouds,dailyrainin,SoftwareType,DateUTC
2013-08-12 00:01:00,71.4,69.0,30.15,South,180,0.0,0.0,92,0.00,,---,0.00,VWS V14.01,2013-08-12 04:01:00,
2013-08-12 00:04:00,71.4,69.0,30.15,South,180,0.0,0.0,92,0.00,,---,0.00,VWS V14.01,2013-08-12 04:04:00,
2013-08-12 00:09:00,71.4,69.0,30.15,South,180,0.0,0.0,92,0.00,,---,0.00,VWS V14.01,2013-08-12 04:09:00,
2013-08-12 00:14:00,71.4,69.0,30.15,South,180,0.0,0.0,92,0.00,,---,0.00,VWS V14.01,2013-08-12 04:14:00,
2013-08-12 00:19:00,71.4,69.0,30.15,SSW,202,0.0,0.0,92,0.00,,---,0.00,VWS V14.01,2013-08-12 04:19:00,
2013-08-12 00:24:00,71.4,69.0,30.15,SSW,202,0.0,0.0,92,0.00,,---,0.00,VWS V14.01,2013-08-12 04:24:00,
2013-08-12 00:29:00,71.4,69.0,30.15,SSW,202,0.0,0.0,92,0.00,,---,0.00,VWS V14.01,2013-08-12 04:29:00,
2013-08-12 00:34:00,71.4,69.3,30.15,SSW,202,0.0,0.0,93,0.00,,---,0.00,VWS V14.01,2013-08-12 04:34:00,
2013-08-12 00:39:00,71.4,69.3,30.15,SSW,202,0.0,0.0,93,0.00,,---,0.00,VWS V14.01,2013-08-12 04:39:00,
2013-08-12 00:44:00,71.6,69.5,30.15,SSW,202,0.0,0.0,93,0.00,,---,0.00,VWS V14.01,2013-08-12 04:44:00,
2013-08-12 00:49:00,71.6,69.5,30.15,SSW,202,0.0,0.0,93,0.00,,---,0.00,VWS V14.01,2013-08-12 04:49:00,
2013-08-12 00:54:00,71.8,69.7,30.12,South,180,0.0,0.0,93,0.00,,---,0.00,VWS V14.01,2013-08-12 04:54:00,
2013-08-12 00:59:00,71.8,69.7,30.12,South,180,0.0,0.0,93,0.00,,---,0.00,VWS V14.01,2013-08-12 04:59:00,
2013-08-12 01:04:00,71.6,69.5,30.12,South,180,0.0,0.0,93,0.00,,---,0.00,VWS V14.01,2013-08-12 05:04:00,
2013-08-12 01:09:00,71.6,69.8,30.15,South,180,0.0,0.0,94,0.00,,---,0.00,VWS V14.01,2013-08-12 05:09:00,
2013-08-12 01:14:00,71.6,69.8,30.15,South,180,0.0,0.0,94,0.00,,---,0.00,VWS V14.01,2013-08-12 05:14:00,
2013-08-12 01:19:00,71.8,70.0,30.15,South,180,0.0,0.0,94,0.00,,---,0.00,VWS V14.01,2013-08-12 05:19:00,
2013-08-12 01:24:00,71.6,69.8,30.15,South,180,0.0,0.0,94,0.00,,---,0.00,VWS V14.01,2013-08-12 05:24:00,
2013-08-12 01:29:00,71.6,69.8,30.15,South,180,0.0,0.0,94,0.00,,---,0.00,VWS V14.01,2013-08-12 05:29:00,
2013-08-12 01:34:00,71.6,69.8,30.15,South,180,0.0,0.0,94,0.00,,---,0.00,VWS V14.01,2013-08-12 05:34:00,
2013-08-12 01:39:00,71.6,69.8,30.15,South,180,0.0,0.0,94,0.00,,---,0.00,VWS V14.01,2013-08-12 05:39:00,
2013-08-12 01:44:00,71.6,69.8,30.15,South,180,0.0,0.0,94,0.00,,---,0.00,VWS V14.01,2013-08-12 05:44:00,
2013-08-12 01:49:00,71.6,69.8,30.15,South,180,0.0,0.0,94,0.00,,---,0.00,VWS V14.01,2013-08-12 05:49:00,
2013-08-12 01:54:00,71.4,69.9,30.15,South,180,0.0,0.0,95,0.00,,---,0.00,VWS V14.01,2013-08-12 05:54:00,
2013-08-12 01:59:00,71.4,69.9,30.15,South,180,0.0,0.0,95,0.00,,---,0.00,VWS V14.01,2013-08-12 05:59:00,
2013-08-12 02:04:00,71.4,69.9,30.15,South,180,0.0,0.0,95,0.00,,---,0.00,VWS V14.01,2013-08-12 06:04:00,
2013-08-12 02:09:00,71.4,69.9,30.15,South,180,0.0,0.0,95,0.00,,---,0.00,VWS V14.01,2013-08-12 06:09:00,
2013-08-12 02:14:00,71.4,69.9,30.15,South,180,0.0,0.0,95,0.00,,---,0.00,VWS V14.01,2013-08-12 06:14:00,
2013-08-12 02:19:00,71.4,70.2,30.15,South,180,0.0,0.0,96,0.00,,---,0.00,VWS V14.01,2013-08-12 06:19:00,
2013-08-12 02:24:00,71.4,70.2,30.15,South,180,0.0,0.0,96,0.00,,---,0.00,VWS V14.01,2013-08-12 06:24:00,
2013-08-12 02:29:00,71.2,70.1,30.15,South,180,0.0,0.0,96,0.00,,---,0.00,VWS V14.01,2013-08-12 06:29:00,
2013-08-12 02:34:00,71.2,70.1,30.15,South,180,0.0,0.0,96,0.00,,---,0.00,VWS V14.01,2013-08-12 06:34:00,
2013-08-12 02:38:00,71.2,70.1,30.15,South,180,0.0,0.0,96,0.00,,---,0.00,VWS V14.01,2013-08-12 06:38:00,
2013-08-12 02:43:00,71.1,69.9,30.15,South,180,0.0,0.0,96,0.00,,---,0.00,VWS V14.01,2013-08-12 06:43:00,
2013-08-12 02:48:00,71.1,69.9,30.15,South,180,0.0,0.0,96,0.00,,---,0.00,VWS V14.01,2013-08-12 06:48:00,
2013-08-12 02:53:00,71.1,69.9,30.15,South,180,0.0,0.0,96,0.00,,---,0.00,VWS V14.01,2013-08-12 06:53:00,
2013-08-12 02:58:00,71.1,69.9,30.15,South,180,0.0,0.0,96,0.00,,---,0.00,VWS V14.01,2013-08-12 06:58:00,
2013-08-12 03:03:00,71.1,69.9,30.15,South,180,0.0,0.0,96,0.00,,---,0.00,VWS V14.01,2013-08-12 07:03:00,
2013-08-12 03:08:00,70.9,69.7,30.12,South,180,0.0,0.0,96,0.00,,---,0.00,VWS V14.01,2013-08-12 07:08:00,
2013-08-12 03:13:00,70.9,69.7,30.12,South,180,0.0,0.0,96,0.00,,---,0.00,VWS V14.01,2013-08-12 07:13:00,
2013-08-12 03:18:00,70.9,70.0,30.12,South,180,0.0,0.0,97,0.00,,---,0.00,VWS V14.01,2013-08-12 07:18:00,
2013-08-12 03:23:00,70.9,70.0,30.12,South,180,0.0,0.0,97,0.00,,---,0.00,VWS V14.01,2013-08-12 07:23:00,
2013-08-12 03:28:00,70.9,70.0,30.12,South,180,0.0,0.0,97,0.00,,---,0.00,VWS V14.01,2013-08-12 07:28:00,
2013-08-12 03:33:00,70.9,70.0,30.12,South,180,0.0,0.0,97,0.00,,---,0.00,VWS V14.01,2013-08-12 07:33:00,
2013-08-12 03:38:00,71.1,70.2,30.12,South,180,0.0,0.0,97,0.00,,---,0.00,VWS V14.01,2013-08-12 07:38:00,
2013-08-12 03:43:00,71.1,70.2,30.12,South,180,0.0,0.0,97,0.00,,---,0.00,VWS V14.01,2013-08-12 07:43:00,
2013-08-12 03:48:00,71.1,70.2,30.12,South,180,0.0,0.0,97,0.00,,---,0.00,VWS V14.01,2013-08-12 07:48:00,
2013-08-12 03:53:00,71.1,70.2,30.12,South,180,0.0,0.0,97,0.00,,---,0.00,VWS V14.01,2013-08-12 07:53:00,
2013-08-12 03:58:00,71.1,70.2,30.12,South,180,0.0,0.0,97,0.00,,---,0.00,VWS V14.01,2013-08-12 07:58:00,
2013-08-12 04:03:00,70.9,70.0,30.12,South,180,0.0,0.0,97,0.00,,---,0.00,VWS V14.01,2013-08-12 08:03:00,
2013-08-12 04:08:00,70.9,70.0,30.12,South,180,0.0,0.0,97,0.00,,---,0.00,VWS V14.01,2013-08-12 08:08:00,
2013-08-12 04:13:00,70.9,70.0,30.12,South,180,0.0,0.0,97,0.00,,---,0.00,VWS V14.01,2013-08-12 08:13:00,
2013-08-12 04:18:00,70.9,70.0,30.12,South,180,0.0,0.0,97,0.00,,---,0.00,VWS V14.01,2013-08-12 08:18:00,
2013-08-12 04:23:00,70.9,70.0,30.12,South,180,0.0,0.0,97,0.00,,---,0.00,VWS V14.01,2013-08-12 08:23:00,
2013-08-12 04:28:00,70.9,70.0,30.12,South,180,0.0,0.0,97,0.00,,---,0.00,VWS V14.01,2013-08-12 08:28:00,
2013-08-12 04:33:00,70.7,69.8,30.12,South,180,0.0,0.0,97,0.00,,---,0.00,VWS V14.01,2013-08-12 08:33:00,
2013-08-12 04:38:00,70.7,69.8,30.12,South,180,0.0,0.0,97,0.00,,---,0.00,VWS V14.01,2013-08-12 08:38:00,
2013-08-12 04:43:00,70.7,69.8,30.12,South,180,0.0,0.0,97,0.00,,---,0.00,VWS V14.01,2013-08-12 08:43:00,
2013-08-12 04:48:00,70.9,70.0,30.12,South,180,0.0,0.0,97,0.00,,---,0.00,VWS V14.01,2013-08-12 08:48:00,
2013-08-12 04:53:00,70.9,70.3,30.12,South,180,0.0,0.0,98,0.00,,---,0.00,VWS V14.01,2013-08-12 08:53:00,
2013-08-12 04:58:00,70.9,70.3,30.12,South,180,0.0,0.0,98,0.00,,---,0.00,VWS V14.01,2013-08-12 08:58:00,
2013-08-12 05:03:00,70.9,70.3,30.12,South,180,0.0,0.0,98,0.00,,---,0.00,VWS V14.01,2013-08-12 09:03:00,
2013-08-12 05:08:00,70.9,70.3,30.12,South,180,0.0,0.0,98,0.00,,---,0.00,VWS V14.01,2013-08-12 09:08:00,
2013-08-12 05:13:00,70.9,70.3,30.12,South,180,0.0,0.0,98,0.00,,---,0.00,VWS V14.01,2013-08-12 09:13:00,
2013-08-12 05:18:00,70.7,70.1,30.12,South,180,0.0,0.0,98,0.00,,---,0.00,VWS V14.01,2013-08-12 09:18:00,
2013-08-12 05:23:00,70.7,70.1,30.12,South,180,0.0,0.0,98,0.00,,---,0.00,VWS V14.01,2013-08-12 09:23:00,
2013-08-12 05:28:00,70.7,70.1,30.12,South,180,0.0,0.0,98,0.00,,---,0.00,VWS V14.01,2013-08-12 09:28:00,
2013-08-12 05:33:00,70.7,70.1,30.12,South,180,0.0,0.0,98,0.00,,---,0.00,VWS V14.01,2013-08-12 09:33:00,
2013-08-12 05:38:00,70.5,69.9,30.15,South,180,0.0,0.0,98,0.00,,---,0.00,VWS V14.01,2013-08-12 09:38:00,
2013-08-12 05:43:00,70.5,69.9,30.15,South,180,0.0,0.0,98,0.00,,---,0.00,VWS V14.01,2013-08-12 09:43:00,
2013-08-12 05:48:00,70.5,69.9,30.15,South,180,0.0,0.0,98,0.00,,---,0.00,VWS V14.01,2013-08-12 09:48:00,
2013-08-12 05:53:00,70.5,69.9,30.12,South,180,0.0,0.0,98,0.00,,---,0.00,VWS V14.01,2013-08-12 09:53:00,
2013-08-12 05:58:00,70.5,69.9,30.12,South,180,0.0,0.0,98,0.00,,---,0.00,VWS V14.01,2013-08-12 09:58:00,
2013-08-12 06:03:00,70.5,69.9,30.12,South,180,0.0,0.0,98,0.00,,---,0.00,VWS V14.01,2013-08-12 10:03:00,
2013-08-12 06:08:00,70.3,69.8,30.12,South,180,0.0,0.0,98,0.00,,---,0.00,VWS V14.01,2013-08-12 10:08:00,
2013-08-12 06:13:00,70.5,69.9,30.12,South,180,0.0,0.0,98,0.00,,---,0.00,VWS V14.01,2013-08-12 10:13:00,
2013-08-12 06:18:00,70.3,69.8,30.12,South,180,0.0,0.0,98,0.00,,---,0.00,VWS V14.01,2013-08-12 10:18:00,
2013-08-12 06:23:00,70.5,69.9,30.12,South,180,0.0,0.0,98,0.00,,---,0.00,VWS V14.01,2013-08-12 10:23:00,
2013-08-12 06:28:00,70.5,69.9,30.12,South,180,0.0,0.0,98,0.00,,---,0.00,VWS V14.01,2013-08-12 10:28:00,
2013-08-12 06:33:00,70.5,69.9,30.12,South,180,0.0,0.0,98,0.00,,---,0.00,VWS V14.01,2013-08-12 10:33:00,
2013-08-12 06:38:00,70.7,70.1,30.15,South,180,0.0,0.0,98,0.00,,---,0.00,VWS V14.01,2013-08-12 10:38:00,
2013-08-12 06:43:00,70.9,70.3,30.15,South,180,0.0,0.0,98,0.00,,---,0.00,VWS V14.01,2013-08-12 10:43:00,
2013-08-12 06:48:00,71.2,70.7,30.15,South,180,0.0,0.0,98,0.00,,---,0.00,VWS V14.01,2013-08-12 10:48:00,
2013-08-12 06:53:00,71.4,70.8,30.12,South,180,0.0,0.0,98,0.00,,---,0.00,VWS V14.01,2013-08-12 10:53:00,
2013-08-12 06:58:00,72.1,71.6,30.12,South,180,0.0,0.0,98,0.00,,---,0.00,VWS V14.01,2013-08-12 10:58:00,
2013-08-12 07:03:00,72.3,71.7,30.12,South,180,0.0,0.0,98,0.00,,---,0.00,VWS V14.01,2013-08-12 11:03:00,
2013-08-12 07:08:00,73.2,72.6,30.15,South,180,0.0,0.0,98,0.00,,---,0.00,VWS V14.01,2013-08-12 11:08:00,
2013-08-12 07:13:00,74.7,74.1,30.15,South,180,0.0,0.0,98,0.00,,---,0.00,VWS V14.01,2013-08-12 11:13:00,
2013-08-12 07:18:00,76.3,75.7,30.15,South,180,0.0,0.0,98,0.00,,---,0.00,VWS V14.01,2013-08-12 11:18:00,
2013-08-12 07:23:00,77.4,76.4,30.15,South,180,0.0,0.0,97,0.00,,---,0.00,VWS V14.01,2013-08-12 11:23:00,
2013-08-12 07:28:00,78.3,76.7,30.15,South,180,0.0,0.0,95,0.00,,---,0.00,VWS V14.01,2013-08-12 11:28:00,
2013-08-12 07:33:00,79.5,76.3,30.15,South,180,0.0,0.0,90,0.00,,---,0.00,VWS V14.01,2013-08-12 11:33:00,
2013-08-12 07:38:00,80.6,76.7,30.12,South,180,0.0,0.0,88,0.00,,---,0.00,VWS V14.01,2013-08-12 11:38:00,
2013-08-12 07:43:00,81.1,76.6,30.12,South,180,0.0,0.0,86,0.00,,---,0.00,VWS V14.01,2013-08-12 11:43:00,
2013-08-12 07:48:00,81.5,75.5,30.12,South,180,0.0,0.0,82,0.00,,---,0.00,VWS V14.01,2013-08-12 11:48:00,
2013-08-12 07:53:00,81.5,74.0,30.12,South,180,0.0,0.0,78,0.00,,---,0.00,VWS V14.01,2013-08-12 11:53:00,
2013-08-12 07:58:00,82.0,73.7,30.12,South,180,0.0,0.0,76,0.00,,---,0.00,VWS V14.01,2013-08-12 11:58:00,
2013-08-12 08:03:00,82.9,74.6,30.12,South,180,0.0,0.0,76,0.00,,---,0.00,VWS V14.01,2013-08-12 12:03:00,
2013-08-12 08:08:00,83.1,73.6,30.12,South,180,0.0,0.0,73,0.00,,---,0.00,VWS V14.01,2013-08-12 12:08:00,
2013-08-12 08:13:00,83.3,71.6,30.12,South,180,0.0,1.1,68,0.00,,---,0.00,VWS V14.01,2013-08-12 12:13:00,
2013-08-12 08:18:00,83.5,71.4,30.12,WNW,292,0.0,2.2,67,0.00,,---,0.00,VWS V14.01,2013-08-12 12:18:00,
2013-08-12 08:23:00,83.8,71.7,30.12,NNW,338,2.0,2.5,67,0.00,,---,0.00,VWS V14.01,2013-08-12 12:23:00,
2013-08-12 08:28:00,83.8,70.8,30.12,West,270,1.6,1.6,65,0.00,,---,0.00,VWS V14.01,2013-08-12 12:28:00,
2013-08-12 08:33:00,83.5,69.1,30.12,North,0,2.2,2.5,62,0.00,,---,0.00,VWS V14.01,2013-08-12 12:33:00,
2013-08-12 08:38:00,83.3,68.9,30.12,WSW,248,1.1,3.1,62,0.00,,---,0.00,VWS V14.01,2013-08-12 12:38:00,
2013-08-12 08:43:00,83.5,70.0,30.12,ESE,112,2.2,2.2,64,0.00,,---,0.00,VWS V14.01,2013-08-12 12:43:00,
2013-08-12 08:48:00,83.5,69.6,30.12,SSE,158,0.9,1.6,63,0.00,,---,0.00,VWS V14.01,2013-08-12 12:48:00,
2013-08-12 08:53:00,84.2,70.2,30.12,SSE,158,1.6,2.0,63,0.00,,---,0.00,VWS V14.01,2013-08-12 12:53:00,
2013-08-12 08:58:00,84.6,68.2,30.12,WNW,292,2.9,3.6,58,0.00,,---,0.00,VWS V14.01,2013-08-12 12:58:00,
2013-08-12 09:03:00,84.9,69.0,30.12,NNW,338,0.0,2.9,59,0.00,,---,0.00,VWS V14.01,2013-08-12 13:03:00,
2013-08-12 09:08:00,84.7,68.8,30.12,NNW,338,2.0,2.5,59,0.00,,---,0.00,VWS V14.01,2013-08-12 13:08:00,
2013-08-12 09:13:00,83.7,68.3,30.12,WSW,248,0.0,0.0,60,0.00,,---,0.00,VWS V14.01,2013-08-12 13:13:00,
2013-08-12 09:18:00,83.3,68.0,30.12,South,180,0.9,0.9,60,0.00,,---,0.00,VWS V14.01,2013-08-12 13:18:00,
2013-08-12 09:23:00,82.2,67.9,30.12,SSW,202,0.0,1.1,62,0.00,,---,0.00,VWS V14.01,2013-08-12 13:23:00,
2013-08-12 09:28:00,82.0,67.8,30.12,WNW,292,0.0,2.2,62,0.00,,---,0.00,VWS V14.01,2013-08-12 13:28:00,
2013-08-12 09:33:00,81.5,66.8,30.12,WNW,292,0.0,2.7,61,0.00,,---,0.00,VWS V14.01,2013-08-12 13:33:00,
2013-08-12 09:38:00,81.1,65.9,30.12,West,270,4.3,5.4,60,0.00,,---,0.00,VWS V14.01,2013-08-12 13:38:00,
2013-08-12 09:43:00,82.4,67.6,30.12,NNW,338,1.1,1.3,61,0.00,,---,0.00,VWS V14.01,2013-08-12 13:43:00,
2013-08-12 09:48:00,82.6,67.8,30.12,NNW,338,2.2,2.2,61,0.00,,---,0.00,VWS V14.01,2013-08-12 13:48:00,
2013-08-12 09:53:00,82.0,67.8,30.12,WSW,248,2.5,2.7,62,0.00,,---,0.00,VWS V14.01,2013-08-12 13:53:00,
2013-08-12 09:58:00,81.5,67.2,30.12,WSW,248,3.1,3.1,62,0.00,,---,0.00,VWS V14.01,2013-08-12 13:58:00,
2013-08-12 10:03:00,82.2,68.4,30.12,WNW,292,0.0,0.0,63,0.00,,---,0.00,VWS V14.01,2013-08-12 14:03:00,
2013-08-12 10:08:00,82.8,67.9,30.12,NNW,338,1.3,2.7,61,0.00,,---,0.00,VWS V14.01,2013-08-12 14:08:00,
2013-08-12 10:13:00,82.6,66.8,30.12,WNW,292,1.3,1.6,59,0.00,,---,0.00,VWS V14.01,2013-08-12 14:13:00,
2013-08-12 10:18:00,81.9,66.6,30.12,West,270,2.5,2.5,60,0.00,,---,0.00,VWS V14.01,2013-08-12 14:18:00,
2013-08-12 10:23:00,81.5,66.8,30.12,North,0,1.3,2.5,61,0.00,,---,0.00,VWS V14.01,2013-08-12 14:23:00,
2013-08-12 10:28:00,81.9,67.6,30.12,NNW,338,2.5,2.5,62,0.00,,---,0.00,VWS V14.01,2013-08-12 14:28:00,
2013-08-12 10:33:00,82.2,67.9,30.12,WNW,292,0.0,1.1,62,0.00,,---,0.00,VWS V14.01,2013-08-12 14:33:00,
2013-08-12 10:38:00,82.4,68.1,30.12,NNE,22,0.0,1.6,62,0.00,,---,0.00,VWS V14.01,2013-08-12 14:38:00,
2013-08-12 10:43:00,82.8,67.9,30.12,WNW,292,2.5,2.5,61,0.00,,---,0.00,VWS V14.01,2013-08-12 14:43:00,
2013-08-12 10:48:00,82.8,67.5,30.12,NNE,22,0.0,0.0,60,0.00,,---,0.00,VWS V14.01,2013-08-12 14:48:00,
2013-08-12 10:53:00,82.9,66.7,30.12,NW,315,2.2,2.7,58,0.00,,---,0.00,VWS V14.01,2013-08-12 14:53:00,
2013-08-12 10:58:00,82.8,67.0,30.12,ENE,68,1.6,2.2,59,0.00,,---,0.00,VWS V14.01,2013-08-12 14:58:00,
2013-08-12 11:03:00,82.9,67.2,30.12,WNW,292,2.0,2.0,59,0.00,,---,0.00,VWS V14.01,2013-08-12 15:03:00,
2013-08-12 11:08:00,82.6,66.3,30.12,WSW,248,1.6,2.9,58,0.00,,---,0.00,VWS V14.01,2013-08-12 15:08:00,
2013-08-12 11:13:00,82.4,65.7,30.12,West,270,4.3,5.6,57,0.00,,---,0.00,VWS V14.01,2013-08-12 15:13:00,
2013-08-12 11:18:00,82.9,66.2,30.12,ENE,68,3.8,3.8,57,0.00,,---,0.00,VWS V14.01,2013-08-12 15:18:00,
2013-08-12 11:23:00,82.9,67.2,30.09,NNE,22,1.3,3.1,59,0.00,,---,0.00,VWS V14.01,2013-08-12 15:23:00,
2013-08-12 11:28:00,83.5,67.7,30.09,NNW,338,2.5,2.5,59,0.00,,---,0.00,VWS V14.01,2013-08-12 15:28:00,
2013-08-12 11:33:00,83.5,67.2,30.09,WNW,292,2.0,2.0,58,0.00,,---,0.00,VWS V14.01,2013-08-12 15:33:00,
2013-08-12 11:38:00,83.1,66.3,30.09,West,270,4.3,4.3,57,0.00,,---,0.00,VWS V14.01,2013-08-12 15:38:00,
2013-08-12 11:43:00,83.5,67.2,30.09,WNW,292,0.0,0.0,58,0.00,,---,0.00,VWS V14.01,2013-08-12 15:43:00,
2013-08-12 11:48:00,83.7,67.3,30.09,NNW,338,0.0,0.0,58,0.00,,---,0.00,VWS V14.01,2013-08-12 15:48:00,
2013-08-12 11:53:00,83.1,66.3,30.06,NE,45,1.6,2.5,57,0.00,,---,0.00,VWS V14.01,2013-08-12 15:53:00,
2013-08-12 11:58:00,82.6,65.8,30.06,ENE,68,2.2,2.2,57,0.00,,---,0.00,VWS V14.01,2013-08-12 15:58:00,
2013-08-12 12:03:00,82.6,66.3,30.06,WSW,248,0.0,0.0,58,0.00,,---,0.00,VWS V14.01,2013-08-12 16:03:00,
2013-08-12 12:08:00,82.0,67.3,30.09,SSE,158,0.0,0.0,61,0.00,,---,0.00,VWS V14.01,2013-08-12 16:08:00,
2013-08-12 12:13:00,82.2,66.5,30.09,NNE,22,0.0,2.2,59,0.00,,---,0.00,VWS V14.01,2013-08-12 16:13:00,
2013-08-12 12:18:00,82.9,66.7,30.09,NNE,22,1.6,1.6,58,0.00,,---,0.00,VWS V14.01,2013-08-12 16:18:00,
2013-08-12 12:23:00,83.1,67.3,30.09,NNE,22,4.3,4.3,59,0.00,,---,0.00,VWS V14.01,2013-08-12 16:23:00,
2013-08-12 12:28:00,82.9,67.6,30.09,NE,45,3.6,3.6,60,0.00,,---,0.00,VWS V14.01,2013-08-12 16:28:00,
2013-08-12 12:33:00,82.6,68.2,30.09,East,90,3.6,3.6,62,0.00,,---,0.00,VWS V14.01,2013-08-12 16:33:00,
2013-08-12 12:38:00,82.2,68.4,30.09,NNE,22,1.6,3.4,63,0.00,,---,0.00,VWS V14.01,2013-08-12 16:38:00,
2013-08-12 12:43:00,82.0,68.7,30.09,ENE,68,0.0,0.0,64,0.00,,---,0.00,VWS V14.01,2013-08-12 16:43:00,
2013-08-12 12:48:00,81.5,68.2,30.09,ENE,68,0.0,0.0,64,0.00,,---,0.00,VWS V14.01,2013-08-12 16:48:00,
2013-08-12 12:53:00,81.1,68.3,30.09,ENE,68,0.0,0.9,65,0.00,,---,0.00,VWS V14.01,2013-08-12 16:53:00,
2013-08-12 12:58:00,80.8,68.4,30.09,East,90,2.0,2.0,66,0.00,,---,0.00,VWS V14.01,2013-08-12 16:58:00,
2013-08-12 13:03:00,81.0,67.7,30.09,NE,45,2.5,2.7,64,0.00,,---,0.00,VWS V14.01,2013-08-12 17:03:00,
2013-08-12 13:08:00,81.0,66.7,30.09,NE,45,2.7,4.0,62,0.00,,---,0.00,VWS V14.01,2013-08-12 17:08:00,
2013-08-12 13:13:00,81.0,66.7,30.09,NNE,22,0.0,1.6,62,0.00,,---,0.00,VWS V14.01,2013-08-12 17:13:00,
2013-08-12 13:18:00,81.5,67.2,30.09,NE,45,3.8,4.3,62,0.00,,---,0.00,VWS V14.01,2013-08-12 17:18:00,
2013-08-12 13:23:00,81.3,66.6,30.06,ENE,68,0.0,1.6,61,0.00,,---,0.00,VWS V14.01,2013-08-12 17:23:00,
2013-08-12 13:28:00,81.1,66.4,30.06,NE,45,2.5,2.5,61,0.00,,---,0.00,VWS V14.01,2013-08-12 17:28:00,
2013-08-12 13:33:00,81.3,66.6,30.06,ENE,68,0.0,0.0,61,0.00,,---,0.00,VWS V14.01,2013-08-12 17:33:00,
2013-08-12 13:38:00,81.9,67.1,30.09,NE,45,1.6,3.6,61,0.00,,---,0.00,VWS V14.01,2013-08-12 17:38:00,
2013-08-12 13:43:00,82.8,67.9,30.09,SSW,202,0.0,0.0,61,0.00,,---,0.00,VWS V14.01,2013-08-12 17:43:00,
2013-08-12 13:48:00,83.3,67.5,30.09,ENE,68,2.5,3.1,59,0.00,,---,0.00,VWS V14.01,2013-08-12 17:48:00,
2013-08-12 13:53:00,83.7,67.3,30.09,NNE,22,3.4,3.4,58,0.00,,---,0.00,VWS V14.01,2013-08-12 17:53:00,
2013-08-12 13:58:00,84.0,67.2,30.09,NNE,22,0.0,0.0,57,0.00,,---,0.00,VWS V14.01,2013-08-12 17:58:00,
2013-08-12 14:03:00,83.8,66.5,30.09,NNE,22,2.9,3.1,56,0.00,,---,0.00,VWS V14.01,2013-08-12 18:03:00,
2013-08-12 14:08:00,83.3,66.0,30.12,NNW,338,2.5,2.5,56,0.00,,---,0.00,VWS V14.01,2013-08-12 18:08:00,
2013-08-12 14:13:00,83.3,66.0,30.12,NNE,22,1.3,2.2,56,0.00,,---,0.00,VWS V14.01,2013-08-12 18:13:00,
2013-08-12 14:18:00,83.3,66.5,30.12,NNE,22,0.0,0.0,57,0.00,,---,0.00,VWS V14.01,2013-08-12 18:18:00,
2013-08-12 14:23:00,83.1,66.3,30.09,NNE,22,1.6,2.9,57,0.00,,---,0.00,VWS V14.01,2013-08-12 18:23:00,
2013-08-12 14:28:00,83.1,66.3,30.09,NE,45,2.7,3.1,57,0.00,,---,0.00,VWS V14.01,2013-08-12 18:28:00,
2013-08-12 14:33:00,83.1,66.3,30.09,NE,45,1.3,2.0,57,0.00,,---,0.00,VWS V14.01,2013-08-12 18:33:00,
2013-08-12 14:38:00,83.1,66.8,30.09,NE,45,2.5,4.9,58,0.00,,---,0.00,VWS V14.01,2013-08-12 18:38:00,
2013-08-12 14:43:00,82.9,65.7,30.09,NE,45,3.1,3.6,56,0.00,,---,0.00,VWS V14.01,2013-08-12 18:43:00,
2013-08-12 14:48:00,83.1,65.8,30.09,NNE,22,0.0,2.2,56,0.00,,---,0.00,VWS V14.01,2013-08-12 18:48:00,
2013-08-12 14:53:00,83.3,66.5,30.06,NNE,22,2.0,2.0,57,0.00,,---,0.00,VWS V14.01,2013-08-12 18:53:00,
2013-08-12 14:58:00,83.5,67.2,30.06,North,0,2.5,2.5,58,0.00,,---,0.00,VWS V14.01,2013-08-12 18:58:00,
2013-08-12 15:03:00,83.7,65.8,30.06,NNE,22,1.1,2.5,55,0.00,,---,0.00,VWS V14.01,2013-08-12 19:03:00,
2013-08-12 15:08:00,83.8,65.4,30.09,NE,45,2.2,2.2,54,0.00,,---,0.00,VWS V14.01,2013-08-12 19:08:00,
2013-08-12 15:13:00,84.0,64.5,30.09,NE,45,0.0,1.1,52,0.00,,---,0.00,VWS V14.01,2013-08-12 19:13:00,
2013-08-12 15:18:00,84.4,64.8,30.09,NE,45,0.0,0.0,52,0.00,,---,0.00,VWS V14.01,2013-08-12 19:18:00,
2013-08-12 15:23:00,84.2,64.7,30.06,NE,45,1.1,1.3,52,0.00,,---,0.00,VWS V14.01,2013-08-12 19:23:00,
2013-08-12 15:28:00,84.4,64.3,30.06,NNE,22,0.0,0.0,51,0.00,,---,0.00,VWS V14.01,2013-08-12 19:28:00,
2013-08-12 15:33:00,84.4,64.8,30.06,NNE,22,0.0,0.0,52,0.00,,---,0.00,VWS V14.01,2013-08-12 19:33:00,
2013-08-12 15:38:00,84.2,64.7,30.06,ENE,68,0.0,0.0,52,0.00,,---,0.00,VWS V14.01,2013-08-12 19:38:00,
2013-08-12 15:43:00,84.0,65.6,30.06,ENE,68,0.0,0.0,54,0.00,,---,0.00,VWS V14.01,2013-08-12 19:43:00,
2013-08-12 15:48:00,84.0,67.2,30.06,ENE,68,0.0,0.0,57,0.00,,---,0.00,VWS V14.01,2013-08-12 19:48:00,
2013-08-12 15:53:00,84.0,68.2,30.06,ENE,68,0.0,0.0,59,0.00,,---,0.00,VWS V14.01,2013-08-12 19:53:00,
2013-08-12 15:58:00,84.0,67.7,30.06,ENE,68,0.0,0.0,58,0.00,,---,0.00,VWS V14.01,2013-08-12 19:58:00,
2013-08-12 16:03:00,84.2,66.8,30.06,NE,45,0.0,1.3,56,0.00,,---,0.00,VWS V14.01,2013-08-12 20:03:00,
2013-08-12 16:08:00,83.8,67.0,30.06,ENE,68,0.0,0.0,57,0.00,,---,0.00,VWS V14.01,2013-08-12 20:08:00,
2013-08-12 16:13:00,83.8,67.0,30.06,SSW,202,0.9,1.6,57,0.00,,---,0.00,VWS V14.01,2013-08-12 20:13:00,
2013-08-12 16:18:00,83.5,67.2,30.06,SW,225,0.0,0.0,58,0.00,,---,0.00,VWS V14.01,2013-08-12 20:18:00,
2013-08-12 16:23:00,83.5,67.7,30.06,NW,315,1.3,2.7,59,0.00,,---,0.00,VWS V14.01,2013-08-12 20:23:00,
2013-08-12 16:28:00,83.7,67.3,30.06,NNW,338,2.9,2.9,58,0.00,,---,0.00,VWS V14.01,2013-08-12 20:28:00,
2013-08-12 16:33:00,83.8,65.4,30.06,WSW,248,0.0,0.0,54,0.00,,---,0.00,VWS V14.01,2013-08-12 20:33:00,
2013-08-12 16:38:00,83.3,66.0,30.06,WSW,248,0.0,0.0,56,0.00,,---,0.00,VWS V14.01,2013-08-12 20:38:00,
2013-08-12 16:43:00,83.3,66.5,30.06,SW,225,1.3,1.3,57,0.00,,---,0.00,VWS V14.01,2013-08-12 20:43:00,
2013-08-12 16:48:00,83.1,66.8,30.06,SSW,202,0.0,0.0,58,0.00,,---,0.00,VWS V14.01,2013-08-12 20:48:00,
2013-08-12 16:53:00,82.9,67.2,30.03,SSW,202,0.0,0.0,59,0.00,,---,0.00,VWS V14.01,2013-08-12 20:53:00,
2013-08-12 16:58:00,83.1,64.2,30.03,NNE,22,3.1,4.0,53,0.00,,---,0.00,VWS V14.01,2013-08-12 20:58:00,
2013-08-12 17:03:00,83.3,64.9,30.03,ENE,68,3.1,3.1,54,0.00,,---,0.00,VWS V14.01,2013-08-12 21:03:00,
2013-08-12 17:08:00,83.3,64.9,30.06,NNW,338,2.9,2.9,54,0.00,,---,0.00,VWS V14.01,2013-08-12 21:08:00,
2013-08-12 17:13:00,83.3,64.4,30.06,NNE,22,1.1,2.2,53,0.00,,---,0.00,VWS V14.01,2013-08-12 21:13:00,
2013-08-12 17:18:00,83.1,63.7,30.06,NNE,22,2.0,2.0,52,0.00,,---,0.00,VWS V14.01,2013-08-12 21:18:00,
2013-08-12 17:23:00,83.1,64.2,30.06,North,0,0.0,0.0,53,0.00,,---,0.00,VWS V14.01,2013-08-12 21:23:00,
2013-08-12 17:28:00,82.2,65.0,30.06,ENE,68,0.0,0.0,56,0.00,,---,0.00,VWS V14.01,2013-08-12 21:28:00,
2013-08-12 17:33:00,81.9,65.2,30.06,ENE,68,0.0,0.0,57,0.00,,---,0.00,VWS V14.01,2013-08-12 21:33:00,
2013-08-12 17:38:00,81.7,65.0,30.03,ENE,68,0.9,1.6,57,0.00,,---,0.00,VWS V14.01,2013-08-12 21:38:00,
2013-08-12 17:43:00,81.5,65.8,30.03,ENE,68,0.0,0.0,59,0.00,,---,0.00,VWS V14.01,2013-08-12 21:43:00,
2013-08-12 17:48:00,81.0,65.3,30.03,ENE,68,0.0,0.0,59,0.00,,---,0.00,VWS V14.01,2013-08-12 21:48:00,
2013-08-12 17:53:00,80.8,65.6,30.03,ENE,68,0.0,0.0,60,0.00,,---,0.00,VWS V14.01,2013-08-12 21:53:00,
2013-08-12 17:58:00,80.6,65.9,30.03,ENE,68,0.0,0.0,61,0.00,,---,0.00,VWS V14.01,2013-08-12 21:58:00,
2013-08-12 18:03:00,80.4,66.2,30.03,ENE,68,0.0,0.0,62,0.00,,---,0.00,VWS V14.01,2013-08-12 22:03:00,
2013-08-12 18:08:00,80.4,66.7,30.03,ENE,68,0.0,0.0,63,0.00,,---,0.00,VWS V14.01,2013-08-12 22:08:00,
2013-08-12 18:13:00,80.4,67.1,30.03,ENE,68,0.0,0.0,64,0.00,,---,0.00,VWS V14.01,2013-08-12 22:13:00,
2013-08-12 18:18:00,80.4,67.6,30.03,ENE,68,0.0,0.0,65,0.00,,---,0.00,VWS V14.01,2013-08-12 22:18:00,
2013-08-12 18:23:00,80.2,67.4,30.03,ENE,68,0.0,0.0,65,0.00,,---,0.00,VWS V14.01,2013-08-12 22:23:00,
2013-08-12 18:28:00,80.1,67.7,30.03,ENE,68,0.0,0.0,66,0.00,,---,0.00,VWS V14.01,2013-08-12 22:28:00,
2013-08-12 18:33:00,80.1,67.7,30.03,ENE,68,0.0,0.0,66,0.00,,---,0.00,VWS V14.01,2013-08-12 22:33:00,
2013-08-12 18:38:00,80.1,68.1,30.03,ENE,68,0.0,0.0,67,0.00,,---,0.00,VWS V14.01,2013-08-12 22:38:00,
2013-08-12 18:43:00,79.9,68.4,30.03,ENE,68,0.0,0.0,68,0.00,,---,0.00,VWS V14.01,2013-08-12 22:43:00,
2013-08-12 18:48:00,79.5,68.0,30.03,ENE,68,0.0,0.0,68,0.00,,---,0.00,VWS V14.01,2013-08-12 22:48:00,
2013-08-12 18:53:00,79.5,68.0,30.03,ENE,68,0.0,0.0,68,0.00,,---,0.00,VWS V14.01,2013-08-12 22:53:00,
2013-08-12 18:58:00,79.3,67.9,30.03,ENE,68,0.0,0.0,68,0.00,,---,0.00,VWS V14.01,2013-08-12 22:58:00,
2013-08-12 19:03:00,79.3,67.9,30.03,ENE,68,0.0,0.0,68,0.00,,---,0.00,VWS V14.01,2013-08-12 23:03:00,
2013-08-12 19:08:00,79.0,67.5,30.03,ENE,68,0.0,0.0,68,0.00,,---,0.00,VWS V14.01,2013-08-12 23:08:00,
2013-08-12 19:13:00,78.8,67.8,30.03,ENE,68,0.0,0.0,69,0.00,,---,0.00,VWS V14.01,2013-08-12 23:13:00,
2013-08-12 19:18:00,78.8,68.2,30.03,ENE,68,0.0,0.0,70,0.00,,---,0.00,VWS V14.01,2013-08-12 23:18:00,
2013-08-12 19:23:00,78.4,67.8,30.03,ENE,68,0.0,0.0,70,0.00,,---,0.00,VWS V14.01,2013-08-12 23:23:00,
2013-08-12 19:28:00,78.3,68.1,30.03,ENE,68,0.0,0.0,71,0.00,,---,0.00,VWS V14.01,2013-08-12 23:28:00,
2013-08-12 19:33:00,77.9,67.8,30.03,ENE,68,0.0,0.0,71,0.00,,---,0.00,VWS V14.01,2013-08-12 23:33:00,
2013-08-12 19:38:00,77.7,68.4,30.03,ENE,68,0.0,0.0,73,0.00,,---,0.00,VWS V14.01,2013-08-12 23:38:00,
2013-08-12 19:43:00,77.4,68.0,30.03,ENE,68,0.0,0.0,73,0.00,,---,0.00,VWS V14.01,2013-08-12 23:43:00,
2013-08-12 19:48:00,77.2,68.3,30.03,ENE,68,0.0,0.0,74,0.00,,---,0.00,VWS V14.01,2013-08-12 23:48:00,
2013-08-12 19:53:00,76.8,68.3,30.03,ENE,68,0.0,0.0,75,0.00,,---,0.00,VWS V14.01,2013-08-12 23:53:00,
2013-08-12 19:58:00,76.6,68.5,30.03,ENE,68,0.0,0.0,76,0.00,,---,0.00,VWS V14.01,2013-08-12 23:58:00,
2013-08-12 20:03:00,76.5,68.7,30.03,ENE,68,0.0,0.0,77,0.00,,---,0.00,VWS V14.01,2013-08-13 00:03:00,
2013-08-12 20:08:00,76.3,68.9,30.03,ENE,68,0.0,0.0,78,0.00,,---,0.00,VWS V14.01,2013-08-13 00:08:00,
2013-08-12 20:13:00,75.9,68.6,30.03,ENE,68,0.0,0.0,78,0.00,,---,0.00,VWS V14.01,2013-08-13 00:13:00,
2013-08-12 20:18:00,75.7,68.4,30.03,ENE,68,0.0,0.0,78,0.00,,---,0.00,VWS V14.01,2013-08-13 00:18:00,
2013-08-12 20:23:00,75.7,68.8,30.03,ENE,68,0.0,0.0,79,0.00,,---,0.00,VWS V14.01,2013-08-13 00:23:00,
2013-08-12 20:28:00,75.6,68.6,30.03,ENE,68,0.0,0.0,79,0.00,,---,0.00,VWS V14.01,2013-08-13 00:28:00,
2013-08-12 20:33:00,75.4,68.4,30.03,ENE,68,0.0,0.0,79,0.00,,---,0.00,VWS V14.01,2013-08-13 00:33:00,
2013-08-12 20:38:00,75.2,68.2,30.03,ENE,68,0.0,0.0,79,0.00,,---,0.00,VWS V14.01,2013-08-13 00:38:00,
2013-08-12 20:43:00,75.0,68.8,30.03,ENE,68,0.0,0.0,81,0.00,,---,0.00,VWS V14.01,2013-08-13 00:43:00,
2013-08-12 20:48:00,75.0,68.8,30.03,ENE,68,0.0,0.0,81,0.00,,---,0.00,VWS V14.01,2013-08-13 00:48:00,
2013-08-12 20:53:00,74.8,69.0,30.03,ENE,68,0.0,0.0,82,0.00,,---,0.00,VWS V14.01,2013-08-13 00:53:00,
2013-08-12 20:58:00,74.7,68.8,30.03,ENE,68,0.0,0.0,82,0.00,,---,0.00,VWS V14.01,2013-08-13 00:58:00,
2013-08-12 21:03:00,74.7,69.2,30.03,ENE,68,0.0,0.0,83,0.00,,---,0.00,VWS V14.01,2013-08-13 01:03:00,
2013-08-12 21:08:00,74.7,69.5,30.03,ENE,68,0.0,0.0,84,0.00,,---,0.00,VWS V14.01,2013-08-13 01:08:00,
2013-08-12 21:13:00,74.5,69.3,30.03,ENE,68,0.0,0.0,84,0.00,,---,0.00,VWS V14.01,2013-08-13 01:13:00,
2013-08-12 21:18:00,74.5,69.3,30.03,ENE,68,0.0,0.0,84,0.00,,---,0.00,VWS V14.01,2013-08-13 01:18:00,
2013-08-12 21:23:00,74.3,69.5,30.06,ENE,68,0.0,0.0,85,0.00,,---,0.00,VWS V14.01,2013-08-13 01:23:00,
2013-08-12 21:28:00,74.3,69.5,30.06,ENE,68,0.0,0.0,85,0.00,,---,0.00,VWS V14.01,2013-08-13 01:28:00,
2013-08-12 21:33:00,74.3,69.8,30.06,ENE,68,0.0,0.0,86,0.00,,---,0.00,VWS V14.01,2013-08-13 01:33:00,
2013-08-12 21:38:00,74.1,69.7,30.03,ENE,68,0.0,0.0,86,0.00,,---,0.00,VWS V14.01,2013-08-13 01:38:00,
2013-08-12 21:43:00,74.1,69.7,30.03,ENE,68,0.0,0.0,86,0.00,,---,0.00,VWS V14.01,2013-08-13 01:43:00,
2013-08-12 21:48:00,73.9,69.8,30.03,ENE,68,0.0,0.0,87,0.00,,---,0.00,VWS V14.01,2013-08-13 01:48:00,
2013-08-12 21:53:00,73.9,69.8,30.06,ENE,68,0.0,0.0,87,0.00,,---,0.00,VWS V14.01,2013-08-13 01:53:00,
2013-08-12 21:58:00,73.9,70.2,30.06,ENE,68,0.0,0.0,88,0.00,,---,0.00,VWS V14.01,2013-08-13 01:58:00,
2013-08-12 22:03:00,73.9,70.2,30.06,ENE,68,0.0,0.0,88,0.00,,---,0.00,VWS V14.01,2013-08-13 02:03:00,
2013-08-12 22:08:00,73.9,70.2,30.06,ENE,68,0.0,0.0,88,0.00,,---,0.00,VWS V14.01,2013-08-13 02:08:00,
2013-08-12 22:13:00,73.8,70.0,30.06,ENE,68,0.0,0.0,88,0.00,,---,0.00,VWS V14.01,2013-08-13 02:13:00,
2013-08-12 22:18:00,73.8,70.3,30.06,ENE,68,0.0,0.0,89,0.00,,---,0.00,VWS V14.01,2013-08-13 02:18:00,
2013-08-12 22:23:00,73.9,70.2,30.06,ENE,68,0.0,0.0,88,0.00,,---,0.00,VWS V14.01,2013-08-13 02:23:00,
2013-08-12 22:28:00,73.9,70.5,30.06,ENE,68,0.0,0.0,89,0.00,,---,0.00,VWS V14.01,2013-08-13 02:28:00,
2013-08-12 22:33:00,73.9,70.5,30.06,ENE,68,0.0,0.0,89,0.00,,---,0.00,VWS V14.01,2013-08-13 02:33:00,
2013-08-12 22:38:00,73.9,70.8,30.03,ENE,68,0.0,0.0,90,0.00,,---,0.00,VWS V14.01,2013-08-13 02:38:00,
2013-08-12 22:43:00,73.9,70.8,30.03,ENE,68,0.0,0.0,90,0.00,,---,0.00,VWS V14.01,2013-08-13 02:43:00,
2013-08-12 22:48:00,73.9,70.8,30.03,ENE,68,0.0,0.0,90,0.00,,---,0.00,VWS V14.01,2013-08-13 02:48:00,
2013-08-12 22:53:00,73.9,70.8,30.03,ENE,68,0.0,0.0,90,0.00,,---,0.00,VWS V14.01,2013-08-13 02:53:00,
2013-08-12 22:58:00,73.9,70.8,30.03,ENE,68,0.0,0.0,90,0.00,,---,0.00,VWS V14.01,2013-08-13 02:58:00,
2013-08-12 23:03:00,73.9,70.8,30.03,ENE,68,0.0,0.0,90,0.00,,---,0.00,VWS V14.01,2013-08-13 03:03:00,
2013-08-12 23:08:00,73.9,71.2,30.03,ENE,68,0.0,0.0,91,0.00,,---,0.00,VWS V14.01,2013-08-13 03:08:00,
2013-08-12 23:13:00,73.9,71.2,30.03,ENE,68,0.0,0.0,91,0.00,,---,0.00,VWS V14.01,2013-08-13 03:13:00,
2013-08-12 23:18:00,73.9,71.2,30.03,ENE,68,0.0,0.0,91,0.00,,---,0.00,VWS V14.01,2013-08-13 03:18:00,
2013-08-12 23:23:00,73.9,71.2,30.03,ENE,68,0.0,0.0,91,0.00,,---,0.00,VWS V14.01,2013-08-13 03:23:00,
2013-08-12 23:28:00,73.9,71.2,30.03,ENE,68,0.0,0.0,91,0.00,,---,0.00,VWS V14.01,2013-08-13 03:28:00,
2013-08-12 23:33:00,73.9,71.2,30.03,ENE,68,0.0,0.0,91,0.00,,---,0.00,VWS V14.01,2013-08-13 03:33:00,
2013-08-12 23:38:00,73.9,71.2,30.00,ENE,68,0.0,0.0,91,0.00,,---,0.00,VWS V14.01,2013-08-13 03:38:00,
2013-08-12 23:43:00,73.9,71.2,30.00,ENE,68,0.0,0.0,91,0.00,,---,0.00,VWS V14.01,2013-08-13 03:43:00,
2013-08-12 23:48:00,73.9,71.2,30.00,ENE,68,0.0,0.0,91,0.00,,---,0.00,VWS V14.01,2013-08-13 03:48:00,
2013-08-12 23:53:00,73.9,71.2,30.03,ENE,68,0.0,0.0,91,0.00,,---,0.00,VWS V14.01,2013-08-13 03:53:00,
2013-08-12 23:58:00,73.9,71.5,30.03,ENE,68,0.0,0.0,92,0.00,,---,0.00,VWS V14.01,2013-08-13 03:58:00,